Alanreed, Texas
Current Conditions -  °F | °C
As of 1:15 PM on Saturday 20 Dec 2014 (Local Time) from KPPA Reporting Station
Clear Clear  
Wind Chill: 40°   Ceiling: Unl
Heat Index: 45°   Visibility: 10mi
Dew Point: 34°   Wind: 12mph
Humidity: 65%   Direction: 220°SW
Pressure: 30.06"   Gusts: NA
Location:  35.21°N, 100.74°W
Report Text: KPPA 201915Z AUTO 22010KT 10SM CLR 07/01 A3006 RMK AO2 T00740011 PNO
Loading
Personal Weather Stations






























Interactive Weather Map New forecast layout! Learn more

10-Day Weather Forecast

Advertisements
Track Severe Weather on mobile